sensor_id;sensor_type;location;lat;lon;timestamp;pressure;altitude;pressure_sealevel;temperature;humidity
59493;BME280;45497;43.996;22.876;2024-03-08T00:01:30;101757.44;;;6.67;63.46
59493;BME280;45497;43.996;22.876;2024-03-08T00:03:56;101753.09;;;6.66;63.60
59493;BME280;45497;43.996;22.876;2024-03-08T00:06:22;101759.94;;;6.80;63.14
59493;BME280;45497;43.996;22.876;2024-03-08T00:08:48;101751.78;;;6.72;63.32
59493;BME280;45497;43.996;22.876;2024-03-08T00:11:13;101753.38;;;6.63;63.20
59493;BME280;45497;43.996;22.876;2024-03-08T00:13:39;101768.09;;;6.65;63.06
59493;BME280;45497;43.996;22.876;2024-03-08T00:16:05;101767.38;;;6.52;63.70
59493;BME280;45497;43.996;22.876;2024-03-08T00:18:30;101757.88;;;6.49;63.30
59493;BME280;45497;43.996;22.876;2024-03-08T00:20:56;101759.41;;;6.29;63.68
59493;BME280;45497;43.996;22.876;2024-03-08T00:23:22;101755.47;;;6.35;64.04
59493;BME280;45497;43.996;22.876;2024-03-08T00:25:48;101757.16;;;6.47;63.64
59493;BME280;45497;43.996;22.876;2024-03-08T00:28:17;101767.81;;;6.35;63.78
59493;BME280;45497;43.996;22.876;2024-03-08T00:30:44;101769.88;;;6.54;63.66
59493;BME280;45497;43.996;22.876;2024-03-08T00:33:11;101768.81;;;6.67;63.30
59493;BME280;45497;43.996;22.876;2024-03-08T00:35:37;101751.06;;;6.58;63.28
59493;BME280;45497;43.996;22.876;2024-03-08T00:38:03;101765.78;;;6.61;63.22
59493;BME280;45497;43.996;22.876;2024-03-08T00:40:29;101760.41;;;6.51;63.40
59493;BME280;45497;43.996;22.876;2024-03-08T00:42:54;101757.28;;;6.46;63.53
59493;BME280;45497;43.996;22.876;2024-03-08T00:45:20;101772.84;;;6.49;63.75
59493;BME280;45497;43.996;22.876;2024-03-08T00:47:47;101754.53;;;6.36;63.93
59493;BME280;45497;43.996;22.876;2024-03-08T00:50:13;101750.09;;;6.37;64.21
59493;BME280;45497;43.996;22.876;2024-03-08T00:52:39;101757.16;;;6.36;64.18
59493;BME280;45497;43.996;22.876;2024-03-08T00:55:05;101763.97;;;6.27;64.59
59493;BME280;45497;43.996;22.876;2024-03-08T00:57:30;101758.47;;;6.30;64.13
59493;BME280;45497;43.996;22.876;2024-03-08T00:59:56;101765.16;;;6.35;64.20
59493;BME280;45497;43.996;22.876;2024-03-08T01:02:22;101759.38;;;6.18;64.23
59493;BME280;45497;43.996;22.876;2024-03-08T01:04:49;101756.13;;;5.90;65.06
59493;BME280;45497;43.996;22.876;2024-03-08T01:07:15;101766.47;;;6.18;64.61
59493;BME280;45497;43.996;22.876;2024-03-08T01:09:43;101763.69;;;6.19;64.60
59493;BME280;45497;43.996;22.876;2024-03-08T01:12:09;101760.94;;;6.21;64.91
59493;BME280;45497;43.996;22.876;2024-03-08T01:14:35;101764.28;;;6.23;64.79
59493;BME280;45497;43.996;22.876;2024-03-08T01:17:01;101754.63;;;6.23;64.88
59493;BME280;45497;43.996;22.876;2024-03-08T01:19:27;101749.59;;;6.31;64.66
59493;BME280;45497;43.996;22.876;2024-03-08T01:21:52;101743.28;;;6.34;64.45
59493;BME280;45497;43.996;22.876;2024-03-08T01:24:21;101755.47;;;6.35;64.73
59493;BME280;45497;43.996;22.876;2024-03-08T01:26:47;101754.91;;;6.43;64.48
59493;BME280;45497;43.996;22.876;2024-03-08T01:29:12;101742.69;;;6.42;64.67
59493;BME280;45497;43.996;22.876;2024-03-08T01:31:39;101748.06;;;6.51;64.36
59493;BME280;45497;43.996;22.876;2024-03-08T01:34:05;101761.63;;;6.58;64.30
59493;BME280;45497;43.996;22.876;2024-03-08T01:36:30;101751.19;;;6.68;64.28
59493;BME280;45497;43.996;22.876;2024-03-08T01:38:56;101757.66;;;6.64;64.23
59493;BME280;45497;43.996;22.876;2024-03-08T01:41:22;101758.03;;;6.70;63.91
59493;BME280;45497;43.996;22.876;2024-03-08T01:43:47;101747.94;;;6.64;63.94
59493;BME280;45497;43.996;22.876;2024-03-08T01:46:19;101754.91;;;6.65;64.38
59493;BME280;45497;43.996;22.876;2024-03-08T01:48:47;101741.03;;;6.52;64.35
59493;BME280;45497;43.996;22.876;2024-03-08T01:51:15;101751.53;;;6.41;64.63
59493;BME280;45497;43.996;22.876;2024-03-08T01:53:42;101743.13;;;6.24;65.06
59493;BME280;45497;43.996;22.876;2024-03-08T01:56:11;101760.63;;;6.37;64.58
59493;BME280;45497;43.996;22.876;2024-03-08T01:58:41;101757.03;;;6.38;64.90
59493;BME280;45497;43.996;22.876;2024-03-08T02:01:11;101762.44;;;6.36;64.52
59493;BME280;45497;43.996;22.876;2024-03-08T02:03:37;101760.59;;;6.14;64.66
59493;BME280;45497;43.996;22.876;2024-03-08T02:06:03;101748.75;;;6.20;65.00
59493;BME280;45497;43.996;22.876;2024-03-08T02:08:30;101762.03;;;6.29;64.55
59493;BME280;45497;43.996;22.876;2024-03-08T02:10:57;101746.31;;;6.05;64.96
59493;BME280;45497;43.996;22.876;2024-03-08T02:13:22;101746.63;;;6.01;64.91
59493;BME280;45497;43.996;22.876;2024-03-08T02:15:56;101759.16;;;6.21;64.74
59493;BME280;45497;43.996;22.876;2024-03-08T02:18:23;101760.09;;;6.20;64.58
59493;BME280;45497;43.996;22.876;2024-03-08T02:23:21;101753.72;;;6.11;64.39
59493;BME280;45497;43.996;22.876;2024-03-08T02:25:50;101764.97;;;6.13;64.66
59493;BME280;45497;43.996;22.876;2024-03-08T02:28:16;101748.47;;;6.11;64.70
59493;BME280;45497;43.996;22.876;2024-03-08T02:30:45;101773.28;;;6.20;64.75
59493;BME280;45497;43.996;22.876;2024-03-08T02:33:14;101759.09;;;6.10;64.85
59493;BME280;45497;43.996;22.876;2024-03-08T02:35:42;101761.19;;;6.18;64.80
59493;BME280;45497;43.996;22.876;2024-03-08T02:38:15;101769.59;;;6.34;64.39
59493;BME280;45497;43.996;22.876;2024-03-08T02:40:42;101767.09;;;6.44;64.24
59493;BME280;45497;43.996;22.876;2024-03-08T02:43:15;101770.94;;;6.51;64.09
59493;BME280;45497;43.996;22.876;2024-03-08T02:45:41;101756.34;;;6.47;63.99
59493;BME280;45497;43.996;22.876;2024-03-08T02:48:08;101764.97;;;6.60;63.91
59493;BME280;45497;43.996;22.876;2024-03-08T02:50:34;101752.28;;;6.54;63.97
59493;BME280;45497;43.996;22.876;2024-03-08T02:53:03;101766.66;;;6.61;63.69
59493;BME280;45497;43.996;22.876;2024-03-08T02:55:30;101775.28;;;6.52;64.25
59493;BME280;45497;43.996;22.876;2024-03-08T02:57:58;101761.59;;;6.36;64.25
59493;BME280;45497;43.996;22.876;2024-03-08T03:00:24;101766.09;;;6.34;64.24
59493;BME280;45497;43.996;22.876;2024-03-08T03:02:50;101758.78;;;6.15;64.23
59493;BME280;45497;43.996;22.876;2024-03-08T03:05:23;101766.97;;;5.74;64.86
59493;BME280;45497;43.996;22.876;2024-03-08T03:07:49;101771.16;;;5.77;64.95
59493;BME280;45497;43.996;22.876;2024-03-08T03:10:19;101765.00;;;5.65;65.28
59493;BME280;45497;43.996;22.876;2024-03-08T03:12:45;101770.16;;;5.67;64.85
59493;BME280;45497;43.996;22.876;2024-03-08T03:15:12;101766.06;;;5.63;65.53
59493;BME280;45497;43.996;22.876;2024-03-08T03:17:39;101790.69;;;5.62;65.41
59493;BME280;45497;43.996;22.876;2024-03-08T03:20:08;101770.91;;;5.56;65.39
59493;BME280;45497;43.996;22.876;2024-03-08T03:22:40;101777.88;;;5.57;65.24
59493;BME280;45497;43.996;22.876;2024-03-08T03:25:09;101772.16;;;5.63;64.88
59493;BME280;45497;43.996;22.876;2024-03-08T03:27:35;101769.16;;;5.81;64.31
59493;BME280;45497;43.996;22.876;2024-03-08T03:30:03;101772.69;;;5.92;64.32
59493;BME280;45497;43.996;22.876;2024-03-08T03:32:47;101777.91;;;6.05;64.02
59493;BME280;45497;43.996;22.876;2024-03-08T03:35:14;101772.63;;;6.05;63.79
59493;BME280;45497;43.996;22.876;2024-03-08T03:37:43;101775.50;;;6.13;63.47
59493;BME280;45497;43.996;22.876;2024-03-08T03:40:16;101765.97;;;6.12;63.58
59493;BME280;45497;43.996;22.876;2024-03-08T03:42:44;101768.47;;;6.14;63.51
59493;BME280;45497;43.996;22.876;2024-03-08T03:45:11;101769.31;;;6.15;63.29
59493;BME280;45497;43.996;22.876;2024-03-08T03:47:36;101781.16;;;6.20;63.30
59493;BME280;45497;43.996;22.876;2024-03-08T03:50:05;101773.50;;;6.17;63.44
59493;BME280;45497;43.996;22.876;2024-03-08T03:52:31;101771.13;;;6.14;63.33
59493;BME280;45497;43.996;22.876;2024-03-08T03:54:57;101779.38;;;6.21;63.29
59493;BME280;45497;43.996;22.876;2024-03-08T03:57:23;101778.56;;;6.31;63.32
59493;BME280;45497;43.996;22.876;2024-03-08T03:59:55;101780.34;;;6.31;63.40
59493;BME280;45497;43.996;22.876;2024-03-08T04:02:22;101767.88;;;6.10;63.54
59493;BME280;45497;43.996;22.876;2024-03-08T04:04:48;101777.94;;;6.17;63.52
59493;BME280;45497;43.996;22.876;2024-03-08T04:07:25;101781.94;;;5.98;63.92
59493;BME280;45497;43.996;22.876;2024-03-08T04:10:10;101785.63;;;5.96;64.18
59493;BME280;45497;43.996;22.876;2024-03-08T04:12:55;101784.59;;;5.85;64.31
59493;BME280;45497;43.996;22.876;2024-03-08T04:15:31;101794.72;;;5.79;64.12
59493;BME280;45497;43.996;22.876;2024-03-08T04:18:18;101789.13;;;5.83;64.04
59493;BME280;45497;43.996;22.876;2024-03-08T04:20:46;101778.47;;;5.85;64.16
59493;BME280;45497;43.996;22.876;2024-03-08T04:23:11;101789.13;;;5.96;63.85
59493;BME280;45497;43.996;22.876;2024-03-08T04:25:37;101798.84;;;6.07;63.55
59493;BME280;45497;43.996;22.876;2024-03-08T04:28:03;101794.44;;;5.94;63.77
59493;BME280;45497;43.996;22.876;2024-03-08T04:30:30;101803.09;;;5.97;63.67
59493;BME280;45497;43.996;22.876;2024-03-08T04:32:55;101792.75;;;5.93;63.34
59493;BME280;45497;43.996;22.876;2024-03-08T04:35:21;101807.53;;;5.83;63.92
59493;BME280;45497;43.996;22.876;2024-03-08T04:37:47;101798.56;;;5.99;64.08
59493;BME280;45497;43.996;22.876;2024-03-08T04:40:13;101805.88;;;6.06;64.11
59493;BME280;45497;43.996;22.876;2024-03-08T04:42:39;101810.97;;;6.21;63.51
59493;BME280;45497;43.996;22.876;2024-03-08T04:45:06;101794.00;;;6.25;63.25
59493;BME280;45497;43.996;22.876;2024-03-08T04:47:36;101805.38;;;6.37;63.04
59493;BME280;45497;43.996;22.876;2024-03-08T04:50:02;101803.13;;;6.32;63.15
59493;BME280;45497;43.996;22.876;2024-03-08T04:52:29;101804.81;;;6.44;63.19
59493;BME280;45497;43.996;22.876;2024-03-08T04:54:55;101799.41;;;6.35;63.02
59493;BME280;45497;43.996;22.876;2024-03-08T04:57:21;101796.84;;;6.22;63.17
59493;BME280;45497;43.996;22.876;2024-03-08T04:59:47;101796.31;;;6.05;62.51
59493;BME280;45497;43.996;22.876;2024-03-08T05:02:15;101795.94;;;5.99;62.96
59493;BME280;45497;43.996;22.876;2024-03-08T05:04:41;101804.25;;;5.92;62.89
59493;BME280;45497;43.996;22.876;2024-03-08T05:07:07;101810.44;;;6.04;62.72
59493;BME280;45497;43.996;22.876;2024-03-08T05:09:33;101824.66;;;6.02;62.75
59493;BME280;45497;43.996;22.876;2024-03-08T05:11:59;101816.09;;;6.11;62.36
59493;BME280;45497;43.996;22.876;2024-03-08T05:14:25;101813.84;;;6.18;62.30
59493;BME280;45497;43.996;22.876;2024-03-08T05:16:51;101819.44;;;6.13;62.11
59493;BME280;45497;43.996;22.876;2024-03-08T05:19:18;101818.81;;;6.09;62.20
59493;BME280;45497;43.996;22.876;2024-03-08T05:21:44;101818.34;;;5.91;61.83
59493;BME280;45497;43.996;22.876;2024-03-08T05:24:10;101831.31;;;5.94;62.61
59493;BME280;45497;43.996;22.876;2024-03-08T05:26:36;101823.09;;;5.86;62.41
59493;BME280;45497;43.996;22.876;2024-03-08T05:29:05;101833.06;;;6.07;62.37
59493;BME280;45497;43.996;22.876;2024-03-08T05:31:45;101821.59;;;6.19;62.10
59493;BME280;45497;43.996;22.876;2024-03-08T05:34:12;101841.41;;;6.25;61.90
59493;BME280;45497;43.996;22.876;2024-03-08T05:36:42;101843.16;;;6.24;62.28
59493;BME280;45497;43.996;22.876;2024-03-08T05:39:19;101845.59;;;6.27;61.93
59493;BME280;45497;43.996;22.876;2024-03-08T05:41:47;101844.66;;;6.28;61.92
59493;BME280;45497;43.996;22.876;2024-03-08T05:44:17;101844.03;;;6.25;61.98
59493;BME280;45497;43.996;22.876;2024-03-08T05:46:51;101836.50;;;6.31;62.05
59493;BME280;45497;43.996;22.876;2024-03-08T05:49:17;101832.31;;;6.29;61.94
59493;BME280;45497;43.996;22.876;2024-03-08T05:51:46;101851.56;;;6.54;61.85
59493;BME280;45497;43.996;22.876;2024-03-08T05:54:17;101853.09;;;6.56;61.74
59493;BME280;45497;43.996;22.876;2024-03-08T05:56:48;101845.81;;;6.60;61.79
59493;BME280;45497;43.996;22.876;2024-03-08T05:59:18;101851.56;;;6.65;61.76
59493;BME280;45497;43.996;22.876;2024-03-08T06:01:46;101859.38;;;6.66;61.62
59493;BME280;45497;43.996;22.876;2024-03-08T06:04:13;101866.19;;;6.69;61.54
59493;BME280;45497;43.996;22.876;2024-03-08T06:06:39;101858.38;;;6.56;61.99
59493;BME280;45497;43.996;22.876;2024-03-08T06:09:05;101860.91;;;6.58;61.92
59493;BME280;45497;43.996;22.876;2024-03-08T06:11:41;101873.69;;;6.62;62.02
59493;BME280;45497;43.996;22.876;2024-03-08T06:14:09;101861.00;;;6.56;61.88
59493;BME280;45497;43.996;22.876;2024-03-08T06:16:41;101868.00;;;6.68;61.75
59493;BME280;45497;43.996;22.876;2024-03-08T06:19:16;101875.16;;;6.66;61.82
59493;BME280;45497;43.996;22.876;2024-03-08T06:21:44;101871.44;;;6.69;61.98
59493;BME280;45497;43.996;22.876;2024-03-08T06:24:11;101876.34;;;6.62;62.01
59493;BME280;45497;43.996;22.876;2024-03-08T06:26:41;101878.84;;;6.53;62.10
59493;BME280;45497;43.996;22.876;2024-03-08T06:29:09;101874.28;;;6.55;62.20
59493;BME280;45497;43.996;22.876;2024-03-08T06:31:36;101865.66;;;6.53;62.15
59493;BME280;45497;43.996;22.876;2024-03-08T06:34:25;101882.47;;;6.63;62.22
59493;BME280;45497;43.996;22.876;2024-03-08T06:37:01;101871.94;;;6.63;62.48
59493;BME280;45497;43.996;22.876;2024-03-08T06:39:30;101876.25;;;6.75;62.25
59493;BME280;45497;43.996;22.876;2024-03-08T06:42:05;101879.88;;;6.85;61.55
59493;BME280;45497;43.996;22.876;2024-03-08T06:44:38;101862.81;;;6.56;62.08
59493;BME280;45497;43.996;22.876;2024-03-08T06:47:48;101868.94;;;6.67;62.38
59493;BME280;45497;43.996;22.876;2024-03-08T06:50:23;101891.28;;;6.97;61.54
59493;BME280;45497;43.996;22.876;2024-03-08T06:56:41;101892.72;;;7.01;61.59
59493;BME280;45497;43.996;22.876;2024-03-08T06:59:29;101895.34;;;7.01;61.66
59493;BME280;45497;43.996;22.876;2024-03-08T07:02:07;101900.41;;;7.04;61.65
59493;BME280;45497;43.996;22.876;2024-03-08T07:04:35;101897.28;;;7.56;62.64
59493;BME280;45497;43.996;22.876;2024-03-08T07:07:09;101895.41;;;8.98;65.09
59493;BME280;45497;43.996;22.876;2024-03-08T07:09:39;101894.31;;;9.82;67.26
59493;BME280;45497;43.996;22.876;2024-03-08T08:53:54;101903.69;;;6.73;62.51
59493;BME280;45497;43.996;22.876;2024-03-08T15:31:30;101803.94;;;9.46;53.77
59493;BME280;45497;43.996;22.876;2024-03-08T15:33:58;101801.97;;;9.38;53.97
59493;BME280;45497;43.996;22.876;2024-03-08T15:36:43;101798.22;;;9.41;53.97
59493;BME280;45497;43.996;22.876;2024-03-08T15:39:15;101787.75;;;9.30;53.47
59493;BME280;45497;43.996;22.876;2024-03-08T15:41:46;101801.56;;;9.33;53.68
59493;BME280;45497;43.996;22.876;2024-03-08T15:44:36;101816.63;;;9.43;53.85
59493;BME280;45497;43.996;22.876;2024-03-08T15:47:10;101808.94;;;9.40;53.81
59493;BME280;45497;43.996;22.876;2024-03-08T15:49:44;101818.44;;;9.52;53.50
59493;BME280;45497;43.996;22.876;2024-03-08T15:52:18;101813.59;;;9.57;53.64
59493;BME280;45497;43.996;22.876;2024-03-08T15:57:50;101814.53;;;9.46;53.94
59493;BME280;45497;43.996;22.876;2024-03-08T16:00:28;101813.41;;;9.49;53.43
59493;BME280;45497;43.996;22.876;2024-03-08T16:03:13;101815.50;;;9.45;53.75
59493;BME280;45497;43.996;22.876;2024-03-08T16:05:46;101813.72;;;9.46;53.75
59493;BME280;45497;43.996;22.876;2024-03-08T16:08:36;101807.16;;;9.40;53.61
59493;BME280;45497;43.996;22.876;2024-03-08T16:11:07;101806.97;;;9.42;53.72
59493;BME280;45497;43.996;22.876;2024-03-08T16:13:43;101802.94;;;9.37;53.75
59493;BME280;45497;43.996;22.876;2024-03-08T16:16:10;101796.81;;;9.37;53.85
59493;BME280;45497;43.996;22.876;2024-03-08T16:18:43;101800.47;;;9.46;53.48
59493;BME280;45497;43.996;22.876;2024-03-08T16:21:15;101798.25;;;9.51;53.40
59493;BME280;45497;43.996;22.876;2024-03-08T16:24:07;101790.16;;;9.43;53.29
59493;BME280;45497;43.996;22.876;2024-03-08T16:26:37;101788.19;;;9.45;53.60
59493;BME280;45497;43.996;22.876;2024-03-08T16:29:17;101777.88;;;9.42;53.27
59493;BME280;45497;43.996;22.876;2024-03-08T16:31:49;101785.25;;;9.38;53.71
59493;BME280;45497;43.996;22.876;2024-03-08T16:57:47;101823.72;;;9.42;53.93
59493;BME280;45497;43.996;22.876;2024-03-08T17:00:22;101810.88;;;9.37;53.80
59493;BME280;45497;43.996;22.876;2024-03-08T17:02:54;101807.94;;;9.31;53.58
59493;BME280;45497;43.996;22.876;2024-03-08T17:05:20;101826.75;;;9.37;53.83
59493;BME280;45497;43.996;22.876;2024-03-08T17:07:49;101822.72;;;9.33;53.71
59493;BME280;45497;43.996;22.876;2024-03-08T17:10:18;101829.53;;;9.36;53.99
59493;BME280;45497;43.996;22.876;2024-03-08T17:12:51;101809.19;;;9.27;53.90
59493;BME280;45497;43.996;22.876;2024-03-08T17:15:38;101824.53;;;9.33;54.00
59493;BME280;45497;43.996;22.876;2024-03-08T17:18:05;101818.69;;;9.29;53.92
59493;BME280;45497;43.996;22.876;2024-03-08T17:20:51;101816.69;;;9.22;54.00
59493;BME280;45497;43.996;22.876;2024-03-08T17:23:20;101817.53;;;9.22;54.10
59493;BME280;45497;43.996;22.876;2024-03-08T17:26:08;101817.53;;;9.22;54.09
59493;BME280;45497;43.996;22.876;2024-03-08T17:28:36;101807.47;;;9.16;53.93
59493;BME280;45497;43.996;22.876;2024-03-08T17:31:11;101813.47;;;9.18;54.05
59493;BME280;45497;43.996;22.876;2024-03-08T17:33:40;101814.72;;;9.14;53.84
59493;BME280;45497;43.996;22.876;2024-03-08T17:36:10;101807.03;;;9.11;54.05
59493;BME280;45497;43.996;22.876;2024-03-08T17:38:37;101826.84;;;9.16;54.03
59493;BME280;45497;43.996;22.876;2024-03-08T17:41:12;101824.03;;;9.18;54.05
59493;BME280;45497;43.996;22.876;2024-03-08T17:43:39;101817.22;;;9.15;54.25
59493;BME280;45497;43.996;22.876;2024-03-08T17:46:09;101831.03;;;9.19;54.60
59493;BME280;45497;43.996;22.876;2024-03-08T17:48:38;101834.06;;;9.14;54.39
59493;BME280;45497;43.996;22.876;2024-03-08T17:51:04;101825.53;;;9.11;54.21
59493;BME280;45497;43.996;22.876;2024-03-08T17:53:30;101833.09;;;9.15;54.06
59493;BME280;45497;43.996;22.876;2024-03-08T17:56:01;101813.81;;;9.04;54.32
59493;BME280;45497;43.996;22.876;2024-03-08T17:58:32;101799.31;;;8.98;54.28
59493;BME280;45497;43.996;22.876;2024-03-08T18:00:58;101827.94;;;9.14;54.17
59493;BME280;45497;43.996;22.876;2024-03-08T18:03:24;101805.19;;;9.02;54.59
59493;BME280;45497;43.996;22.876;2024-03-08T18:05:54;101820.41;;;9.09;54.25
59493;BME280;45497;43.996;22.876;2024-03-08T18:08:20;101811.19;;;9.04;54.15
59493;BME280;45497;43.996;22.876;2024-03-08T18:10:45;101821.50;;;9.07;54.33
59493;BME280;45497;43.996;22.876;2024-03-08T18:13:15;101818.28;;;9.03;54.36
59493;BME280;45497;43.996;22.876;2024-03-08T18:15:46;101828.59;;;9.06;54.13
59493;BME280;45497;43.996;22.876;2024-03-08T18:18:12;101813.81;;;9.04;54.46
59493;BME280;45497;43.996;22.876;2024-03-08T18:20:38;101825.84;;;9.08;54.49
59493;BME280;45497;43.996;22.876;2024-03-08T19:35:33;101832.56;;;8.91;55.19
59493;BME280;45497;43.996;22.876;2024-03-08T19:38:04;101843.66;;;8.85;55.52
59493;BME280;45497;43.996;22.876;2024-03-08T19:40:33;101835.75;;;8.64;55.69
59493;BME280;45497;43.996;22.876;2024-03-08T19:43:12;101831.44;;;8.63;55.88
59493;BME280;45497;43.996;22.876;2024-03-08T19:45:46;101825.25;;;8.52;56.20
59493;BME280;45497;43.996;22.876;2024-03-08T19:48:13;101826.41;;;8.59;56.00
59493;BME280;45497;43.996;22.876;2024-03-08T19:50:43;101828.41;;;8.67;56.06
59493;BME280;45497;43.996;22.876;2024-03-08T19:53:11;101833.69;;;8.67;56.12
59493;BME280;45497;43.996;22.876;2024-03-08T19:55:38;101822.53;;;8.64;56.03
59493;BME280;45497;43.996;22.876;2024-03-08T19:58:08;101841.69;;;8.77;55.86
59493;BME280;45497;43.996;22.876;2024-03-08T20:00:35;101838.06;;;8.78;55.58
59493;BME280;45497;43.996;22.876;2024-03-08T20:03:04;101821.13;;;8.59;56.13
59493;BME280;45497;43.996;22.876;2024-03-08T20:05:33;101826.88;;;8.65;56.14
59493;BME280;45497;43.996;22.876;2024-03-08T20:08:09;101833.50;;;8.59;56.35
59493;BME280;45497;43.996;22.876;2024-03-08T20:10:39;101828.72;;;8.53;56.15
59493;BME280;45497;43.996;22.876;2024-03-08T20:13:07;101826.19;;;8.51;56.64
59493;BME280;45497;43.996;22.876;2024-03-08T20:15:37;101823.25;;;8.45;56.84
59493;BME280;45497;43.996;22.876;2024-03-08T20:18:07;101825.41;;;8.39;56.67
59493;BME280;45497;43.996;22.876;2024-03-08T20:20:35;101826.25;;;8.40;56.59
59493;BME280;45497;43.996;22.876;2024-03-08T20:23:06;101821.91;;;8.50;56.55
59493;BME280;45497;43.996;22.876;2024-03-08T20:25:35;101826.06;;;8.53;56.22
59493;BME280;45497;43.996;22.876;2024-03-08T20:28:05;101832.25;;;8.42;56.36
59493;BME280;45497;43.996;22.876;2024-03-08T20:30:36;101819.44;;;8.37;56.62
59493;BME280;45497;43.996;22.876;2024-03-08T20:36:39;101828.72;;;8.53;56.89
59493;BME280;45497;43.996;22.876;2024-03-08T20:39:10;101819.75;;;8.44;56.68
59493;BME280;45497;43.996;22.876;2024-03-08T20:41:47;101813.84;;;8.40;56.51
59493;BME280;45497;43.996;22.876;2024-03-08T20:44:22;101817.63;;;8.38;56.70
59493;BME280;45497;43.996;22.876;2024-03-08T21:55:51;101785.06;;;8.58;56.73
59493;BME280;45497;43.996;22.876;2024-03-08T21:58:17;101775.03;;;8.52;56.32
59493;BME280;45497;43.996;22.876;2024-03-08T22:00:47;101769.31;;;8.47;56.29
59493;BME280;45497;43.996;22.876;2024-03-08T22:03:14;101769.88;;;8.51;56.17
59493;BME280;45497;43.996;22.876;2024-03-08T22:05:43;101776.41;;;8.47;56.40
59493;BME280;45497;43.996;22.876;2024-03-08T22:08:13;101762.97;;;8.38;56.57
59493;BME280;45497;43.996;22.876;2024-03-08T22:10:41;101771.59;;;8.40;56.33
59493;BME280;45497;43.996;22.876;2024-03-08T22:13:07;101763.38;;;8.34;56.21
59493;BME280;45497;43.996;22.876;2024-03-08T22:15:33;101766.13;;;8.32;56.12
59493;BME280;45497;43.996;22.876;2024-03-08T22:18:07;101764.97;;;8.25;56.24
59493;BME280;45497;43.996;22.876;2024-03-08T22:20:37;101762.69;;;8.20;56.60
59493;BME280;45497;43.996;22.876;2024-03-08T22:23:04;101746.69;;;8.12;56.32
59493;BME280;45497;43.996;22.876;2024-03-08T22:25:32;101757.84;;;8.04;56.79
59493;BME280;45497;43.996;22.876;2024-03-08T22:28:04;101747.69;;;8.00;56.59
59493;BME280;45497;43.996;22.876;2024-03-08T22:30:33;101755.09;;;8.06;56.22
59493;BME280;45497;43.996;22.876;2024-03-08T22:33:03;101771.72;;;8.18;56.22
59493;BME280;45497;43.996;22.876;2024-03-08T22:35:38;101772.81;;;8.15;55.65
59493;BME280;45497;43.996;22.876;2024-03-08T22:38:04;101750.06;;;8.03;55.94
59493;BME280;45497;43.996;22.876;2024-03-08T22:40:32;101761.47;;;8.03;55.83
59493;BME280;45497;43.996;22.876;2024-03-08T22:42:59;101755.03;;;7.96;56.07
59493;BME280;45497;43.996;22.876;2024-03-08T22:45:35;101757.66;;;7.96;55.95
59493;BME280;45497;43.996;22.876;2024-03-08T22:48:01;101758.75;;;7.94;56.06
59493;BME280;45497;43.996;22.876;2024-03-08T22:50:26;101771.00;;;7.95;56.12
59493;BME280;45497;43.996;22.876;2024-03-08T22:52:52;101778.78;;;7.96;55.98
59493;BME280;45497;43.996;22.876;2024-03-08T22:55:22;101769.00;;;7.87;55.65
59493;BME280;45497;43.996;22.876;2024-03-08T22:57:48;101767.13;;;7.66;56.03
59493;BME280;45497;43.996;22.876;2024-03-08T23:00:17;101770.22;;;7.28;57.13
59493;BME280;45497;43.996;22.876;2024-03-08T23:02:52;101771.34;;;7.03;57.76
59493;BME280;45497;43.996;22.876;2024-03-08T23:05:21;101770.50;;;6.91;58.37
59493;BME280;45497;43.996;22.876;2024-03-08T23:07:53;101763.66;;;6.88;58.50
59493;BME280;45497;43.996;22.876;2024-03-08T23:10:18;101759.84;;;6.81;58.85
59493;BME280;45497;43.996;22.876;2024-03-08T23:12:48;101768.94;;;6.77;58.78
59493;BME280;45497;43.996;22.876;2024-03-08T23:15:16;101763.19;;;6.72;58.96
59493;BME280;45497;43.996;22.876;2024-03-08T23:17:45;101771.66;;;6.53;59.64
59493;BME280;45497;43.996;22.876;2024-03-08T23:20:12;101776.53;;;6.35;60.28
59493;BME280;45497;43.996;22.876;2024-03-08T23:22:41;101750.69;;;6.29;60.00
59493;BME280;45497;43.996;22.876;2024-03-08T23:25:18;101756.06;;;6.27;60.03
59493;BME280;45497;43.996;22.876;2024-03-08T23:27:52;101757.47;;;6.20;60.02
59493;BME280;45497;43.996;22.876;2024-03-08T23:30:19;101753.63;;;6.13;60.19
59493;BME280;45497;43.996;22.876;2024-03-08T23:32:45;101767.19;;;6.20;59.96
59493;BME280;45497;43.996;22.876;2024-03-08T23:35:12;101756.03;;;6.16;59.91
59493;BME280;45497;43.996;22.876;2024-03-08T23:37:41;101770.41;;;6.23;59.82
59493;BME280;45497;43.996;22.876;2024-03-08T23:40:12;101752.53;;;6.16;60.04
59493;BME280;45497;43.996;22.876;2024-03-08T23:42:42;101760.59;;;6.25;59.79
59493;BME280;45497;43.996;22.876;2024-03-08T23:45:10;101752.69;;;6.25;59.64
59493;BME280;45497;43.996;22.876;2024-03-08T23:47:46;101744.81;;;6.25;59.54
59493;BME280;45497;43.996;22.876;2024-03-08T23:50:13;101753.53;;;6.37;59.06
59493;BME280;45497;43.996;22.876;2024-03-08T23:52:42;101756.66;;;6.31;59.05
59493;BME280;45497;43.996;22.876;2024-03-08T23:55:10;101748.97;;;6.17;59.62
59493;BME280;45497;43.996;22.876;2024-03-08T23:57:42;101755.31;;;6.14;59.65
